Carolina, PR (00988)

4:28 AM AST on December 28, 2014 (GMT -0400)
Manejo de Emergencias Carolina | Change Station
CLOSE
Current Station
Personal Weather Station
Location: Carolina, PR
Elevation: 40 ft
Nearby Weather Stations
Active Advisory: High Surf Advisory

Elev 40 ft 18.38 °N, 65.97 °W | Updated 9 minutes ago

Scattered Clouds
Scattered Clouds
69.7 °F
Feels Like 69.7 °F
N
1.0
Wind Variable Wind from West
Gusts 4.0 mph

Today
High -- | Low -- °F
--% Chance of Precip.
Yesterday
High -- | Low -- °F
Precip. -- in
6:54 AM 5:56 PM
Waxing Crescent, 45% visible
Pressure 30.01 in
Visibility 10.0 miles
Clouds Few 2800 ft
Scattered Clouds 3600 ft
Scattered Clouds 4900 ft
Dew Point 67 °F
Humidity 92%
Rainfall -999.00 in
Snow Depth Not available.
UV 0 out of 12
Pollen Not available.
Air Quality Not available.
Flu Activity Not available.
METAR TJSJ 280756Z 00000KT 10SM FEW028 SCT036 SCT049 24/21 A3002 RMK AO2 SLP163 T02440211

More Conditions Fewer Conditions

Pressure 30.01 in
Visibility 10.0 miles
Clouds Few 2800 ft
Scattered Clouds 3600 ft
Scattered Clouds 4900 ft
Dew Point 67 °F
Humidity 92%
Rainfall -999.00 in
Snow Depth Not available.
UV 0 out of 12
Pollen Not available.
Air Quality Not available.
Flu Activity Not available.
METAR TJSJ 280756Z 00000KT 10SM FEW028 SCT036 SCT049 24/21 A3002 RMK AO2 SLP163 T02440211

More Conditions Fewer Conditions

10-Day Weather Forecast

Almanac

Astronomy

Dec. 28, 2014 Rise Set
Actual Time
Civil Twilight
Nautical Twilight
Astronomical Twilight
Moon
Length of Visible Light
Length of Day
Tomorrow will be .
, % of the Moon is Illuminated

Today's Extremes

State Highs State Lows

Community

WunderPhotos

Upload Photos

1,781,210 photos uploaded!

WunderBlogs® & News

Nearby

Air Quality

  Air Quality AQ Index Pollutant
Not available.

Snow Depth

Station Depth Elevation

Earthquake Activity

City Distance Mag. Time & Date
Minimum magnitude displayed is 2.5.

Coastal Water Temperatures

Place Temperature

Nearby Weather Stations